Time;durP1;ratioP1;P1;durP2;ratioP2;P2;SDS_P1;SDS_P2;PMS_P1;PMS_P2;Temp;Humidity;BMP_temperature;BMP_pressure;BME280_temperature;BME280_humidity;BME280_pressure;Samples;Min_cycle;Max_cycle;Signal;HPM_P1;HPM_P2
2023/09/06 00:01:44;;;;;;;4.07;2.75;;;;;;;24.28;45.91;101021.03;41766528;28;20496;-77
2023/09/06 00:21:45;;;;;;;7.32;2.60;;;;;;;24.22;45.78;101013.59;41745039;28;20048;-75
2023/09/06 00:41:46;;;;;;;3.88;2.75;;;;;;;24.32;45.97;101018.97;41758272;28;20083;-75
2023/09/06 01:01:48;;;;;;;3.03;2.70;;;;;;;24.27;45.93;101035.22;41753013;28;21362;-75
2023/09/06 01:22:04;;;;;;;3.60;2.72;;;;;;;24.14;45.59;101020.34;41738628;28;20037;-73
2023/09/06 01:42:05;;;;;;;2.60;2.40;;;;;;;24.00;45.52;100998.56;41781220;28;20049;-75
2023/09/06 02:02:05;;;;;;;3.95;2.70;;;;;;;23.96;45.55;101013.84;41799559;28;20045;-75
2023/09/06 02:22:05;;;;;;;4.03;2.65;;;;;;;23.92;45.58;101009.75;41788493;28;20037;-76
2023/09/06 02:42:06;;;;;;;3.58;2.63;;;;;;;24.01;45.26;101024.06;41783684;28;20072;-74
2023/09/06 03:02:06;;;;;;;3.10;2.47;;;;;;;23.97;45.35;101016.38;41788052;28;20407;-74
2023/09/06 03:22:10;;;;;;;2.60;2.40;;;;;;;23.75;45.21;100995.22;41790140;28;20572;-75
2023/09/06 03:42:10;;;;;;;3.40;2.67;;;;;;;23.85;45.24;101021.75;41774807;28;20117;-74
2023/09/06 04:02:13;;;;;;;4.20;2.80;;;;;;;24.02;45.05;101053.03;41743410;28;20577;-71
2023/09/06 04:22:15;;;;;;;4.45;3.03;;;;;;;24.09;45.48;101054.22;41723251;28;20045;-77
2023/09/06 04:42:16;;;;;;;5.47;2.90;;;;;;;24.41;45.17;101079.94;41737723;28;20518;-67
2023/09/06 05:02:16;;;;;;;13.43;3.65;;;;;;;23.28;45.48;101083.34;41745991;28;20037;-78
2023/09/06 05:22:17;;;;;;;9.68;3.20;;;;;;;23.21;46.56;101090.03;41689948;28;21786;-75
2023/09/06 05:42:18;;;;;;;4.70;3.30;;;;;;;23.50;46.05;101063.22;41746185;28;20091;-75
2023/09/06 06:02:18;;;;;;;5.28;2.97;;;;;;;23.69;46.00;101088.22;41776645;28;20438;-81
2023/09/06 06:22:19;;;;;;;7.10;3.00;;;;;;;23.66;45.62;101078.75;41832267;28;20033;-78
2023/09/06 06:42:19;;;;;;;268.95;21.90;;;;;;;23.89;45.48;101092.81;41805142;28;20065;-76
2023/09/06 07:02:20;;;;;;;11.98;3.40;;;;;;;22.77;46.23;101142.50;41818180;28;20529;-77
2023/09/06 07:22:20;;;;;;;11.77;3.33;;;;;;;22.88;46.06;101122.44;41818262;28;20043;-76
2023/09/06 07:42:20;;;;;;;6.75;3.38;;;;;;;22.92;45.58;101123.88;41790448;28;20048;-77
2023/09/06 08:02:22;;;;;;;7.88;2.70;;;;;;;23.67;44.60;101112.16;41770634;28;20033;-77
2023/09/06 08:22:22;;;;;;;7.75;2.72;;;;;;;23.81;45.02;101096.06;41772650;28;20100;-76
2023/09/06 08:42:24;;;;;;;8.65;2.40;;;;;;;24.06;45.30;101123.28;41798555;28;20037;-77
2023/09/06 09:02:24;;;;;;;9.48;2.60;;;;;;;24.06;45.23;101093.31;41782747;28;20040;-76
2023/09/06 09:22:26;;;;;;;3.28;2.20;;;;;;;24.12;45.33;101109.56;41792693;28;20385;-76
2023/09/06 09:42:26;;;;;;;5.05;2.28;;;;;;;24.21;45.32;101091.28;41778685;28;20041;-77
2023/09/06 10:02:27;;;;;;;3.70;1.90;;;;;;;24.13;45.41;101055.69;41795441;28;20036;-77
2023/09/06 10:22:28;;;;;;;3.30;2.35;;;;;;;24.34;45.26;101067.31;41810040;28;20050;-77
2023/09/06 10:42:28;;;;;;;4.70;2.28;;;;;;;24.36;45.21;101039.75;41792668;28;20059;-78
2023/09/06 11:02:30;;;;;;;2.13;1.73;;;;;;;24.34;45.08;101011.72;41809419;28;20155;-76
2023/09/06 11:22:32;;;;;;;3.75;1.95;;;;;;;24.70;44.91;101015.84;41776035;28;20040;-77
2023/09/06 11:42:34;;;;;;;4.45;2.20;;;;;;;24.92;44.86;100995.53;41787232;28;20098;-77
2023/09/06 12:02:34;;;;;;;3.53;1.67;;;;;;;24.84;44.50;100940.56;41765505;28;20055;-78
2023/09/06 12:22:35;;;;;;;1.63;1.50;;;;;;;25.07;44.60;100935.09;41767066;28;20538;-78
2023/09/06 12:42:44;;;;;;;1.38;1.27;;;;;;;25.38;44.47;100951.06;41773473;28;20531;-75
2023/09/06 13:02:44;;;;;;;5.45;1.88;;;;;;;25.35;44.48;100911.50;41784407;28;20048;-79
2023/09/06 13:22:44;;;;;;;5.60;1.63;;;;;;;25.48;44.90;100912.16;41779027;28;20041;-77
2023/09/06 13:42:45;;;;;;;1.83;1.50;;;;;;;25.47;44.63;100875.16;41791462;28;20041;-81
2023/09/06 14:02:45;;;;;;;2.33;1.45;;;;;;;25.66;44.59;100885.81;41758058;28;20582;-77
2023/09/06 14:22:45;;;;;;;3.63;2.03;;;;;;;25.83;44.63;100872.84;41775157;28;20103;-75
2023/09/06 14:42:46;;;;;;;5.35;2.10;;;;;;;25.17;44.60;100761.09;41814235;28;20110;-76
2023/09/06 15:02:49;;;;;;;4.35;1.90;;;;;;;25.78;44.63;100843.25;41817386;28;20041;-78
2023/09/06 15:22:50;;;;;;;10.35;3.00;;;;;;;25.85;45.12;100845.22;41782636;28;20048;-74
2023/09/06 15:42:52;;;;;;;10.35;3.30;;;;;;;25.64;44.93;100826.75;41778893;28;20048;-74
2023/09/06 16:02:53;;;;;;;9.90;3.10;;;;;;;25.78;44.97;100864.47;41765524;28;20045;-74
2023/09/06 16:22:53;;;;;;;7.88;2.97;;;;;;;25.72;44.61;100856.09;41744463;28;20508;-77
2023/09/06 16:43:05;;;;;;;10.18;2.72;;;;;;;25.58;45.44;100864.44;42016711;27;20410;-77
2023/09/06 17:03:06;;;;;;;7.15;2.65;;;;;;;25.29;43.06;100859.84;41897200;27;20049;-75
2023/09/06 17:23:07;;;;;;;11.07;2.88;;;;;;;25.34;42.61;100888.63;41967838;27;20079;-73
2023/09/06 17:43:08;;;;;;;9.35;3.95;;;;;;;24.86;42.66;100863.59;41899464;28;20141;-77
2023/09/06 18:03:14;;;;;;;12.40;4.90;;;;;;;25.28;42.74;100920.97;41812457;28;20079;-77
2023/09/06 18:23:15;;;;;;;38.08;12.70;;;;;;;25.18;44.63;100931.53;41815407;28;20051;-76
2023/09/06 18:43:17;;;;;;;10.75;4.85;;;;;;;24.77;42.11;100945.50;41894490;28;20053;-77
2023/09/06 19:03:19;;;;;;;9.07;4.43;;;;;;;24.54;42.88;100957.16;41826677;28;20040;-75
2023/09/06 19:23:20;;;;;;;11.55;5.78;;;;;;;23.92;44.41;100956.84;41842195;28;20064;-74
2023/09/06 19:43:23;;;;;;;7.03;4.40;;;;;;;23.80;44.68;100985.09;41870989;28;20044;-76
2023/09/06 20:03:26;;;;;;;6.97;3.75;;;;;;;23.91;43.75;100986.91;41893596;28;20040;-75
2023/09/06 20:23:30;;;;;;;8.07;3.40;;;;;;;23.76;44.08;100994.25;41882160;28;20040;-76
2023/09/06 20:43:33;;;;;;;7.22;3.58;;;;;;;23.61;44.27;100999.78;41852484;28;20048;-75
2023/09/06 21:03:33;;;;;;;8.30;4.10;;;;;;;23.44;44.51;101005.53;41824157;28;20492;-77
2023/09/06 21:23:35;;;;;;;8.27;3.80;;;;;;;23.26;45.01;101015.72;41868116;28;20037;-75
2023/09/06 21:43:36;;;;;;;6.18;4.30;;;;;;;23.10;45.58;101022.13;41867197;28;20084;-76
2023/09/06 22:03:36;;;;;;;7.28;3.95;;;;;;;22.69;45.89;100976.78;41876178;28;20155;-75
2023/09/06 22:23:38;;;;;;;6.63;4.15;;;;;;;22.86;45.95;101016.88;41844982;28;20060;-75
2023/09/06 22:43:39;;;;;;;6.72;3.45;;;;;;;22.71;46.32;101029.44;41874152;28;20056;-76
2023/09/06 23:03:42;;;;;;;5.90;3.30;;;;;;;22.65;45.85;101037.81;41852786;28;20043;-75
2023/09/06 23:23:43;;;;;;;3.88;3.13;;;;;;;22.32;46.45;101019.00;41846670;28;20068;-76
2023/09/06 23:43:44;;;;;;;4.05;2.95;;;;;;;21.90;46.55;100963.97;41853522;28;20091;-76
